Beech Mountain, North Carolina
Current Conditions -  °F | °C
As of 9:35 PM on Wednesday 22 Oct 2014 (Local Time) from KTNB Reporting Station
Clear Clear  
Wind Chill: 34°   Ceiling: Unl
Heat Index: 41°   Visibility: 10mi
Dew Point: 34°   Wind: 14mph
Humidity: 75%   Direction: 310°NW
Pressure: 30.12"   Gusts: 22mph
Location:  36.1797°N, 81.8424°W
Report Text: KTNB 230135Z AUTO 31012G19KT 10SM CLR 05/01 A3012 RMK AO2 T00510010
Loading
Personal Weather Stations






























Interactive Weather Map
Tropical Storm Tracking
New forecast layout! Learn more

10-Day Weather Forecast

Advertisements
Track Severe Weather on mobile